Wetterdaten: aktuell Mittwoch, 14.11.2018 23:10
Datum Zeit Temp. A. Temp. A. min Feuchte A. Luftdruck Regen Wind Richtung Richtung Sonnenschein Solar Taupunkt Windchill Windben
14.11.2018 23:10 5,7 C 5,7 C 92 % 1036,4 hPa 0,0 l/m 3,6 km/h (1 Bft) O 83 0 min 0 W/m 4,5 C 5,7 C 8,0 km/h (2 Bft)
14.11.2018 23:05 5,7 C 5,7 C 92 % 1036,5 hPa 0,0 l/m 5,4 km/h (1 Bft) O-NO 68 0 min 0 W/m 4,5 C 4,7 C 11,3 km/h (2 Bft)
14.11.2018 23:00 5,7 C 5,7 C 92 % 1036,5 hPa 0,0 l/m 6,0 km/h (2 Bft) O-SO 119 0 min 0 W/m 4,5 C 4,5 C 16,1 km/h (3 Bft)
14.11.2018 22:55 5,7 C 5,6 C 92 % 1036,4 hPa 0,0 l/m 3,7 km/h (1 Bft) NO 51 0 min 0 W/m 4,5 C 5,7 C 11,3 km/h (2 Bft)
14.11.2018 22:50 5,6 C 5,6 C 92 % 1036,5 hPa 0,0 l/m 1,7 km/h (1 Bft) SO 128 0 min 0 W/m 4,4 C 5,6 C 6,4 km/h (2 Bft)
14.11.2018 22:45 5,6 C 5,6 C 92 % 1036,5 hPa 0,0 l/m 2,3 km/h (1 Bft) SO 133 0 min 0 W/m 4,4 C 5,6 C 4,8 km/h (1 Bft)
14.11.2018 22:40 5,6 C 5,6 C 92 % 1036,6 hPa 0,0 l/m 2,0 km/h (1 Bft) O-SO 103 0 min 0 W/m 4,4 C 5,6 C 6,4 km/h (2 Bft)
14.11.2018 22:35 5,6 C 5,5 C 92 % 1036,6 hPa 0,0 l/m 1,7 km/h (1 Bft) O 98 0 min 0 W/m 4,4 C 5,6 C 4,8 km/h (1 Bft)
14.11.2018 22:30 5,6 C 5,6 C 92 % 1036,6 hPa 0,0 l/m 1,0 km/h (0 Bft) O-SO 109 0 min 0 W/m 4,4 C 5,6 C 4,8 km/h (1 Bft)
14.11.2018 22:25 5,6 C 5,6 C 92 % 1036,6 hPa 0,0 l/m 2,0 km/h (1 Bft) O 90 0 min 0 W/m 4,4 C 5,6 C 4,8 km/h (1 Bft)
14.11.2018 22:20 5,6 C 5,6 C 92 % 1036,6 hPa 0,0 l/m 0,0 km/h (0 Bft) NO 40 0 min 0 W/m 4,4 C 5,6 C 0,0 km/h (0 Bft)
14.11.2018 22:15 5,7 C 5,6 C 92 % 1036,6 hPa 0,0 l/m 0,4 km/h (0 Bft) NO 40 0 min 0 W/m 4,5 C 5,7 C 3,2 km/h (1 Bft)
14.11.2018 22:10 5,7 C 5,7 C 92 % 1036,6 hPa 0,0 l/m 1,3 km/h (1 Bft) NO 51 0 min 0 W/m 4,5 C 5,7 C 3,2 km/h (1 Bft)
14.11.2018 22:05 5,8 C 5,8 C 92 % 1036,6 hPa 0,0 l/m 1,7 km/h (1 Bft) O-NO 76 0 min 0 W/m 4,6 C 5,8 C 6,4 km/h (2 Bft)
14.11.2018 22:00 5,8 C 5,8 C 92 % 1036,6 hPa 0,0 l/m 2,7 km/h (1 Bft) O-NO 72 0 min 0 W/m 4,6 C 5,8 C 6,4 km/h (2 Bft)
14.11.2018 21:55 5,9 C 5,8 C 92 % 1036,6 hPa 0,0 l/m 2,3 km/h (1 Bft) S-SW 211 0 min 0 W/m 4,7 C 5,9 C 6,4 km/h (2 Bft)
14.11.2018 21:50 5,8 C 5,8 C 92 % 1036,6 hPa 0,0 l/m 4,1 km/h (1 Bft) O 92 0 min 0 W/m 4,6 C 5,8 C 9,7 km/h (2 Bft)
14.11.2018 21:45 5,8 C 5,8 C 92 % 1036,6 hPa 0,0 l/m 5,5 km/h (1 Bft) N-NO 30 0 min 0 W/m 4,6 C 4,8 C 11,3 km/h (2 Bft)
14.11.2018 21:40 5,8 C 5,8 C 92 % 1036,6 hPa 0,0 l/m 5,9 km/h (2 Bft) NO 48 0 min 0 W/m 4,6 C 4,7 C 12,9 km/h (3 Bft)
14.11.2018 21:35 5,8 C 5,7 C 92 % 1036,6 hPa 0,0 l/m 4,9 km/h (1 Bft) O-NO 68 0 min 0 W/m 4,6 C 5,0 C 9,7 km/h (2 Bft)
14.11.2018 21:30 5,7 C 5,7 C 92 % 1036,6 hPa 0,0 l/m 4,2 km/h (1 Bft) O 101 0 min 0 W/m 4,5 C 5,7 C 9,7 km/h (2 Bft)
14.11.2018 21:25 5,7 C 5,7 C 92 % 1036,6 hPa 0,0 l/m 4,3 km/h (1 Bft) O 94 0 min 0 W/m 4,5 C 5,7 C 11,3 km/h (2 Bft)
14.11.2018 21:20 5,7 C 5,6 C 92 % 1036,5 hPa 0,0 l/m 4,5 km/h (1 Bft) NO 44 0 min 0 W/m 4,5 C 5,7 C 11,3 km/h (2 Bft)
14.11.2018 21:15 5,6 C 5,5 C 92 % 1036,4 hPa 0,0 l/m 4,1 km/h (1 Bft) N-NO 33 0 min 0 W/m 4,4 C 5,6 C 8,0 km/h (2 Bft)
14.11.2018 21:10 5,5 C 5,4 C 92 % 1036,5 hPa 0,0 l/m 3,2 km/h (1 Bft) NO 47 0 min 0 W/m 4,3 C 5,5 C 8,0 km/h (2 Bft)
14.11.2018 21:05 5,4 C 5,4 C 91 % 1036,4 hPa 0,0 l/m 3,5 km/h (1 Bft) NO 56 0 min 0 W/m 4,1 C 5,4 C 9,7 km/h (2 Bft)
14.11.2018 21:00 5,4 C 5,4 C 91 % 1036,4 hPa 0,0 l/m 2,7 km/h (1 Bft) O 93 0 min 0 W/m 4,1 C 5,4 C 9,7 km/h (2 Bft)
14.11.2018 20:55 5,5 C 5,5 C 91 % 1036,5 hPa 0,0 l/m 1,4 km/h (1 Bft) S-SW 200 0 min 0 W/m 4,2 C 5,5 C 4,8 km/h (1 Bft)
14.11.2018 20:50 5,6 C 5,6 C 91 % 1036,5 hPa 0,0 l/m 1,2 km/h (1 Bft) S-SW 199 0 min 0 W/m 4,2 C 5,6 C 3,2 km/h (1 Bft)
14.11.2018 20:45 5,7 C 5,7 C 90 % 1036,4 hPa 0,0 l/m 1,2 km/h (1 Bft) NW 311 0 min 0 W/m 4,2 C 5,7 C 3,2 km/h (1 Bft)
14.11.2018 20:40 5,8 C 5,8 C 90 % 1036,4 hPa 0,0 l/m 0,6 km/h (0 Bft) NW 315 0 min 0 W/m 4,3 C 5,8 C 3,2 km/h (1 Bft)
14.11.2018 20:35 5,9 C 5,9 C 90 % 1036,4 hPa 0,0 l/m 0,1 km/h (0 Bft) NW 315 0 min 0 W/m 4,4 C 5,9 C 1,6 km/h (1 Bft)
14.11.2018 20:30 6,1 C 6,0 C 90 % 1036,4 hPa 0,0 l/m 0,5 km/h (0 Bft) NW 315 0 min 0 W/m 4,6 C 6,1 C 3,2 km/h (1 Bft)
14.11.2018 20:25 6,1 C 6,1 C 90 % 1036,4 hPa 0,0 l/m 1,1 km/h (1 Bft) NW 315 0 min 0 W/m 4,6 C 6,1 C 3,2 km/h (1 Bft)
14.11.2018 20:20 6,2 C 6,2 C 90 % 1036,4 hPa 0,0 l/m 0,8 km/h (0 Bft) NW 321 0 min 0 W/m 4,7 C 6,2 C 3,2 km/h (1 Bft)
14.11.2018 20:15 6,3 C 6,3 C 90 % 1036,4 hPa 0,0 l/m 2,1 km/h (1 Bft) NW 320 0 min 0 W/m 4,8 C 6,3 C 4,8 km/h (1 Bft)
14.11.2018 20:10 6,4 C 6,4 C 90 % 1036,4 hPa 0,0 l/m 0,5 km/h (0 Bft) NW 325 0 min 0 W/m 4,9 C 6,4 C 1,6 km/h (1 Bft)
14.11.2018 20:05 6,6 C 6,6 C 90 % 1036,4 hPa 0,0 l/m 1,4 km/h (1 Bft) NW 325 0 min 0 W/m 5,1 C 6,6 C 4,8 km/h (1 Bft)
14.11.2018 20:00 6,7 C 6,7 C 90 % 1036,5 hPa 0,0 l/m 1,3 km/h (1 Bft) N 5 0 min 0 W/m 5,2 C 6,7 C 3,2 km/h (1 Bft)
14.11.2018 19:55 6,7 C 6,7 C 90 % 1036,5 hPa 0,0 l/m 2,9 km/h (1 Bft) N 5 0 min 0 W/m 5,2 C 6,7 C 8,0 km/h (2 Bft)
14.11.2018 19:50 6,8 C 6,8 C 90 % 1036,5 hPa 0,0 l/m 3,1 km/h (1 Bft) O-NO 66 0 min 0 W/m 5,3 C 6,8 C 6,4 km/h (2 Bft)
14.11.2018 19:45 6,9 C 6,9 C 89 % 1036,6 hPa 0,0 l/m 3,8 km/h (1 Bft) N 360 0 min 0 W/m 5,2 C 6,9 C 6,4 km/h (2 Bft)
14.11.2018 19:40 6,9 C 6,9 C 89 % 1036,5 hPa 0,0 l/m 1,9 km/h (1 Bft) N-NO 17 0 min 0 W/m 5,2 C 6,9 C 3,2 km/h (1 Bft)
14.11.2018 19:35 7,1 C 7,1 C 89 % 1036,5 hPa 0,0 l/m 1,3 km/h (1 Bft) O 94 0 min 0 W/m 5,4 C 7,1 C 3,2 km/h (1 Bft)
14.11.2018 19:30 7,2 C 7,2 C 89 % 1036,5 hPa 0,0 l/m 0,8 km/h (0 Bft) N-NO 22 0 min 0 W/m 5,5 C 7,2 C 3,2 km/h (1 Bft)
14.11.2018 19:25 7,2 C 7,2 C 89 % 1036,5 hPa 0,0 l/m 2,7 km/h (1 Bft) NO 40 0 min 0 W/m 5,5 C 7,2 C 6,4 km/h (2 Bft)
14.11.2018 19:20 7,3 C 7,3 C 89 % 1036,5 hPa 0,0 l/m 2,1 km/h (1 Bft) N 9 0 min 0 W/m 5,6 C 7,3 C 4,8 km/h (1 Bft)
14.11.2018 19:15 7,4 C 7,4 C 89 % 1036,5 hPa 0,0 l/m 1,4 km/h (1 Bft) O-NO 65 0 min 0 W/m 5,7 C 7,4 C 4,8 km/h (1 Bft)
14.11.2018 19:10 7,5 C 7,5 C 89 % 1036,4 hPa 0,0 l/m 2,1 km/h (1 Bft) NW 317 0 min 0 W/m 5,8 C 7,5 C 4,8 km/h (1 Bft)
14.11.2018 19:05 7,6 C 7,6 C 89 % 1036,5 hPa 0,0 l/m 3,1 km/h (1 Bft) NO 56 0 min 0 W/m 5,9 C 7,6 C 4,8 km/h (1 Bft)
14.11.2018 19:00 7,7 C 7,7 C 90 % 1036,5 hPa 0,0 l/m 2,1 km/h (1 Bft) N-NO 24 0 min 0 W/m 6,2 C 7,7 C 4,8 km/h (1 Bft)
14.11.2018 18:55 7,7 C 7,7 C 90 % 1036,4 hPa 0,0 l/m 4,6 km/h (1 Bft) NO 46 0 min 0 W/m 6,2 C 7,3 C 12,9 km/h (3 Bft)
14.11.2018 18:50 7,7 C 7,5 C 91 % 1036,5 hPa 0,0 l/m 6,9 km/h (2 Bft) N-NO 13 0 min 0 W/m 6,3 C 6,6 C 14,5 km/h (3 Bft)
14.11.2018 18:45 7,5 C 7,4 C 91 % 1036,5 hPa 0,0 l/m 5,4 km/h (1 Bft) N 11 0 min 0 W/m 6,1 C 6,8 C 9,7 km/h (2 Bft)
14.11.2018 18:40 7,4 C 7,2 C 91 % 1036,5 hPa 0,0 l/m 5,3 km/h (1 Bft) N-NO 24 0 min 0 W/m 6,0 C 6,7 C 9,7 km/h (2 Bft)
14.11.2018 18:35 7,2 C 7,1 C 91 % 1036,5 hPa 0,0 l/m 4,6 km/h (1 Bft) NO 38 0 min 0 W/m 5,8 C 6,7 C 8,0 km/h (2 Bft)
14.11.2018 18:30 7,1 C 7,1 C 91 % 1036,5 hPa 0,0 l/m 3,5 km/h (1 Bft) N 11 0 min 0 W/m 5,7 C 7,1 C 8,0 km/h (2 Bft)
14.11.2018 18:25 7,1 C 7,1 C 91 % 1036,5 hPa 0,0 l/m 1,9 km/h (1 Bft) N 10 0 min 0 W/m 5,7 C 7,1 C 8,0 km/h (2 Bft)
14.11.2018 18:20 7,2 C 7,2 C 91 % 1036,4 hPa 0,0 l/m 1,0 km/h (0 Bft) N-NW 328 0 min 0 W/m 5,8 C 7,2 C 3,2 km/h (1 Bft)
14.11.2018 18:15 7,3 C 7,3 C 91 % 1036,4 hPa 0,0 l/m 2,7 km/h (1 Bft) NW 309 0 min 0 W/m 5,9 C 7,3 C 4,8 km/h (1 Bft)
14.11.2018 18:10 7,3 C 7,3 C 91 % 1036,3 hPa 0,0 l/m 2,5 km/h (1 Bft) NW 304 0 min 0 W/m 5,9 C 7,3 C 4,8 km/h (1 Bft)
14.11.2018 18:07 7,3 C 7,3 C 91 % 1036,2 hPa 0,0 l/m 2,6 km/h (1 Bft) O 99 0 min 0 W/m 5,9 C 7,3 C 4,8 km/h (1 Bft)
14.11.2018 18:05 7,3 C 7,3 C 91 % 1036,2 hPa 0,0 l/m 4,2 km/h (1 Bft) W-NW 289 0 min 0 W/m 5,9 C 7,3 C 8,0 km/h (2 Bft)
14.11.2018 18:00 7,3 C 7,3 C 91 % 1036,1 hPa 0,0 l/m 3,6 km/h (1 Bft) NW 311 0 min 0 W/m 5,9 C 7,3 C 8,0 km/h (2 Bft)
14.11.2018 17:55 7,4 C 7,4 C 90 % 1036,0 hPa 0,0 l/m 3,6 km/h (1 Bft) N-NW 336 0 min 0 W/m 5,9 C 7,4 C 8,0 km/h (2 Bft)
14.11.2018 17:50 7,5 C 7,5 C 90 % 1036,1 hPa 0,0 l/m 2,0 km/h (1 Bft) N 5 0 min 0 W/m 6,0 C 7,5 C 4,8 km/h (1 Bft)
14.11.2018 17:45 7,7 C 7,7 C 90 % 1036,1 hPa 0,0 l/m 1,9 km/h (1 Bft) O-NO 78 0 min 0 W/m 6,2 C 7,7 C 4,8 km/h (1 Bft)
14.11.2018 17:40 7,9 C 7,9 C 90 % 1036,0 hPa 0,0 l/m 2,4 km/h (1 Bft) W-NW 292 0 min 0 W/m 6,4 C 7,9 C 6,4 km/h (2 Bft)
14.11.2018 17:35 8,1 C 8,1 C 90 % 1036,0 hPa 0,0 l/m 1,8 km/h (1 Bft) N 360 0 min 0 W/m 6,6 C 8,1 C 3,2 km/h (1 Bft)
14.11.2018 17:30 8,2 C 8,2 C 90 % 1036,0 hPa 0,0 l/m 1,1 km/h (1 Bft) N 360 0 min 0 W/m 6,7 C 8,2 C 3,2 km/h (1 Bft)
14.11.2018 17:25 8,4 C 8,4 C 89 % 1036,1 hPa 0,0 l/m 0,7 km/h (0 Bft) N 360 0 min 0 W/m 6,7 C 8,4 C 3,2 km/h (1 Bft)
14.11.2018 17:20 8,5 C 8,5 C 89 % 1036,1 hPa 0,0 l/m 2,7 km/h (1 Bft) N 360 0 min 0 W/m 6,8 C 8,5 C 4,8 km/h (1 Bft)
14.11.2018 17:15 8,7 C 8,7 C 89 % 1036,0 hPa 0,0 l/m 2,2 km/h (1 Bft) N 360 0 min 0 W/m 7,0 C 8,7 C 4,8 km/h (1 Bft)
14.11.2018 17:10 8,8 C 8,8 C 88 % 1036,0 hPa 0,0 l/m 1,6 km/h (1 Bft) N 360 0 min 0 W/m 6,9 C 8,8 C 3,2 km/h (1 Bft)
14.11.2018 17:05 8,9 C 8,9 C 88 % 1036,0 hPa 0,0 l/m 1,2 km/h (1 Bft) N 360 0 min 0 W/m 7,0 C 8,9 C 3,2 km/h (1 Bft)
14.11.2018 17:00 9,2 C 9,2 C 88 % 1036,0 hPa 0,0 l/m 0,4 km/h (0 Bft) N 360 0 min 0 W/m 7,3 C 9,2 C 1,6 km/h (1 Bft)
14.11.2018 16:55 9,4 C 9,4 C 88 % 1036,0 hPa 0,0 l/m 1,5 km/h (1 Bft) N 360 0 min 0 W/m 7,5 C 9,4 C 3,2 km/h (1 Bft)
14.11.2018 16:50 9,6 C 9,6 C 88 % 1036,0 hPa 0,0 l/m 1,3 km/h (1 Bft) N 360 0 min 0 W/m 7,7 C 9,6 C 3,2 km/h (1 Bft)
14.11.2018 16:45 9,7 C 9,7 C 88 % 1036,0 hPa 0,0 l/m 1,8 km/h (1 Bft) N 360 0 min 0 W/m 7,8 C 9,7 C 3,2 km/h (1 Bft)
14.11.2018 16:40 9,9 C 9,9 C 88 % 1036,0 hPa 0,0 l/m 1,5 km/h (1 Bft) N 360 0 min 0 W/m 8,0 C 9,9 C 3,2 km/h (1 Bft)
14.11.2018 16:35 10,1 C 10,1 C 88 % 1036,1 hPa 0,0 l/m 1,6 km/h (1 Bft) N 360 0 min 0 W/m 8,2 C 10,1 C 3,2 km/h (1 Bft)
14.11.2018 16:30 10,2 C 10,2 C 87 % 1036,1 hPa 0,0 l/m 1,1 km/h (1 Bft) W-NW 303 0 min 0 W/m 8,1 C 10,2 C 3,2 km/h (1 Bft)
14.11.2018 16:25 10,4 C 10,4 C 87 % 1036,1 hPa 0,0 l/m 1,7 km/h (1 Bft) W-NW 303 0 min 0 W/m 8,3 C 10,4 C 3,2 km/h (1 Bft)
14.11.2018 16:20 10,5 C 10,5 C 87 % 1036,2 hPa 0,0 l/m 0,5 km/h (0 Bft) W-NW 303 0 min 0 W/m 8,4 C 10,5 C 3,2 km/h (1 Bft)
14.11.2018 16:15 10,7 C 10,7 C 87 % 1036,2 hPa 0,0 l/m 1,0 km/h (0 Bft) W-NW 303 0 min 0 W/m 8,6 C 10,7 C 3,2 km/h (1 Bft)
14.11.2018 16:10 10,8 C 10,8 C 87 % 1036,2 hPa 0,0 l/m 2,2 km/h (1 Bft) W-NW 303 0 min 0 W/m 8,7 C 10,8 C 3,2 km/h (1 Bft)
14.11.2018 16:05 10,8 C 10,8 C 86 % 1036,3 hPa 0,0 l/m 3,2 km/h (1 Bft) W-NW 303 0 min 0 W/m 8,6 C 10,8 C 6,4 km/h (2 Bft)
14.11.2018 16:00 10,9 C 10,9 C 86 % 1036,4 hPa 0,0 l/m 3,0 km/h (1 Bft) W-NW 289 0 min 0 W/m 8,7 C 10,9 C 6,4 km/h (2 Bft)
14.11.2018 15:55 11,0 C 11,0 C 86 % 1036,3 hPa 0,0 l/m 4,7 km/h (1 Bft) W-NW 290 0 min 0 W/m 8,7 C 11,0 C 8,0 km/h (2 Bft)
14.11.2018 15:50 11,1 C 11,1 C 86 % 1036,3 hPa 0,0 l/m 4,3 km/h (1 Bft) W 279 0 min 0 W/m 8,8 C 11,1 C 11,3 km/h (2 Bft)
14.11.2018 15:45 11,2 C 11,2 C 86 % 1036,3 hPa 0,0 l/m 4,5 km/h (1 Bft) W-NW 283 0 min 0 W/m 8,9 C 11,2 C 8,0 km/h (2 Bft)
14.11.2018 15:40 11,2 C 11,2 C 86 % 1036,3 hPa 0,0 l/m 4,5 km/h (1 Bft) W 275 0 min 0 W/m 8,9 C 11,2 C 11,3 km/h (2 Bft)
14.11.2018 15:35 11,2 C 11,2 C 86 % 1036,3 hPa 0,0 l/m 4,8 km/h (1 Bft) W 276 0 min 0 W/m 8,9 C 11,2 C 9,7 km/h (2 Bft)
14.11.2018 15:30 11,2 C 11,2 C 86 % 1036,3 hPa 0,0 l/m 3,3 km/h (1 Bft) NW 307 0 min 0 W/m 8,9 C 11,2 C 8,0 km/h (2 Bft)
14.11.2018 15:25 11,2 C 11,2 C 86 % 1036,2 hPa 0,0 l/m 3,6 km/h (1 Bft) N-NW 338 0 min 0 W/m 8,9 C 11,2 C 6,4 km/h (2 Bft)
14.11.2018 15:20 11,3 C 11,3 C 86 % 1036,3 hPa 0,0 l/m 3,8 km/h (1 Bft) W-NW 294 0 min 0 W/m 9,0 C 11,3 C 6,4 km/h (2 Bft)
14.11.2018 15:15 11,3 C 11,3 C 86 % 1036,2 hPa 0,0 l/m 4,2 km/h (1 Bft) W-NW 282 0 min 0 W/m 9,0 C 11,3 C 9,7 km/h (2 Bft)
14.11.2018 15:10 11,4 C 11,4 C 86 % 1036,2 hPa 0,0 l/m 4,6 km/h (1 Bft) W 275 0 min 0 W/m 9,1 C 11,4 C 8,0 km/h (2 Bft)
14.11.2018 15:05 11,4 C 11,4 C 87 % 1036,2 hPa 0,0 l/m 3,8 km/h (1 Bft) W 275 0 min 0 W/m 9,3 C 11,4 C 6,4 km/h (2 Bft)
14.11.2018 15:00 11,4 C 11,4 C 87 % 1036,2 hPa 0,0 l/m 4,0 km/h (1 Bft) W-NW 288 0 min 0 W/m 9,3 C 11,4 C 6,4 km/h (2 Bft)
14.11.2018 14:55 11,4 C 11,3 C 87 % 1036,3 hPa 0,0 l/m 5,8 km/h (2 Bft) N-NW 333 0 min 0 W/m 9,3 C 11,4 C 12,9 km/h (3 Bft)
14.11.2018 14:50 11,3 C 11,2 C 88 % 1036,3 hPa 0,0 l/m 6,1 km/h (2 Bft) N-NW 333 0 min 0 W/m 9,4 C 11,3 C 9,7 km/h (2 Bft)
14.11.2018 14:45 11,2 C 11,2 C 89 % 1036,3 hPa 0,0 l/m 6,0 km/h (2 Bft) W-NW 285 0 min 0 W/m 9,5 C 11,2 C 9,7 km/h (2 Bft)
14.11.2018 14:40 11,2 C 11,1 C 90 % 1036,3 hPa 0,0 l/m 4,7 km/h (1 Bft) NW 319 0 min 0 W/m 9,6 C 11,2 C 11,3 km/h (2 Bft)
14.11.2018 14:35 11,1 C 10,9 C 91 % 1036,2 hPa 0,0 l/m 4,6 km/h (1 Bft) NW 313 0 min 0 W/m 9,7 C 11,1 C 6,4 km/h (2 Bft)
14.11.2018 14:30 11,0 C 10,8 C 91 % 1036,3 hPa 0,0 l/m 3,6 km/h (1 Bft) W 268 0 min 0 W/m 9,6 C 11,0 C 6,4 km/h (2 Bft)
14.11.2018 14:25 10,8 C 10,7 C 92 % 1036,3 hPa 0,0 l/m 4,1 km/h (1 Bft) W-NW 293 0 min 0 W/m 9,6 C 10,8 C 9,7 km/h (2 Bft)
14.11.2018 14:20 10,7 C 10,6 C 93 % 1036,4 hPa 0,0 l/m 2,4 km/h (1 Bft) W-NW 290 0 min 0 W/m 9,6 C 10,7 C 4,8 km/h (1 Bft)
14.11.2018 14:15 10,6 C 10,4 C 93 % 1036,4 hPa 0,0 l/m 2,4 km/h (1 Bft) W-NW 290 0 min 0 W/m 9,5 C 10,6 C 4,8 km/h (1 Bft)
14.11.2018 14:10 10,4 C 10,3 C 94 % 1036,5 hPa 0,0 l/m 2,9 km/h (1 Bft) W 277 0 min 0 W/m 9,5 C 10,4 C 4,8 km/h (1 Bft)
14.11.2018 14:05 10,3 C 10,2 C 94 % 1036,5 hPa 0,0 l/m 3,4 km/h (1 Bft) W-NW 298 0 min 0 W/m 9,4 C 10,3 C 6,4 km/h (2 Bft)
14.11.2018 14:00 10,2 C 10,1 C 95 % 1036,5 hPa 0,0 l/m 3,9 km/h (1 Bft) W-NW 303 0 min 0 W/m 9,4 C 10,2 C 8,0 km/h (2 Bft)
14.11.2018 13:55 10,1 C 9,9 C 95 % 1036,6 hPa 0,0 l/m 3,7 km/h (1 Bft) NW 319 0 min 0 W/m 9,3 C 10,1 C 4,8 km/h (1 Bft)
14.11.2018 13:50 9,9 C 9,9 C 95 % 1036,7 hPa 0,0 l/m 2,7 km/h (1 Bft) N 355 0 min 0 W/m 9,1 C 9,9 C 6,4 km/h (2 Bft)
14.11.2018 13:45 9,9 C 9,8 C 96 % 1036,7 hPa 0,0 l/m 2,3 km/h (1 Bft) NW 315 0 min 0 W/m 9,3 C 9,9 C 4,8 km/h (1 Bft)
14.11.2018 13:40 9,8 C 9,7 C 96 % 1036,8 hPa 0,0 l/m 1,5 km/h (1 Bft) S-SO 154 0 min 0 W/m 9,2 C 9,8 C 3,2 km/h (1 Bft)
14.11.2018 13:35 9,7 C 9,6 C 96 % 1036,8 hPa 0,0 l/m 1,5 km/h (1 Bft) W-SW 244 0 min 0 W/m 9,1 C 9,7 C 3,2 km/h (1 Bft)
14.11.2018 13:30 9,6 C 9,5 C 96 % 1036,9 hPa 0,0 l/m 2,0 km/h (1 Bft) W-SW 242 0 min 0 W/m 9,0 C 9,6 C 4,8 km/h (1 Bft)
14.11.2018 13:25 9,5 C 9,4 C 96 % 1036,9 hPa 0,0 l/m 2,5 km/h (1 Bft) NW 306 0 min 0 W/m 8,9 C 9,5 C 6,4 km/h (2 Bft)
14.11.2018 13:20 9,4 C 9,3 C 96 % 1037,0 hPa 0,0 l/m 1,2 km/h (1 Bft) SW 215 0 min 0 W/m 8,8 C 9,4 C 3,2 km/h (1 Bft)
14.11.2018 13:15 9,3 C 9,1 C 97 % 1037,0 hPa 0,0 l/m 3,2 km/h (1 Bft) S 182 0 min 0 W/m 8,8 C 9,3 C 6,4 km/h (2 Bft)
14.11.2018 13:10 9,1 C 8,8 C 96 % 1037,1 hPa 0,0 l/m 2,8 km/h (1 Bft) S-SO 165 0 min 0 W/m 8,5 C 9,1 C 6,4 km/h (2 Bft)
14.11.2018 13:05 8,8 C 8,6 C 96 % 1037,1 hPa 0,0 l/m 3,2 km/h (1 Bft) S-SW 194 0 min 0 W/m 8,2 C 8,8 C 6,4 km/h (2 Bft)
14.11.2018 13:00 8,6 C 8,4 C 97 % 1037,2 hPa 0,0 l/m 2,8 km/h (1 Bft) S 188 0 min 0 W/m 8,2 C 8,6 C 4,8 km/h (1 Bft)
14.11.2018 12:55 8,4 C 8,1 C 97 % 1037,3 hPa 0,0 l/m 2,3 km/h (1 Bft) S-SW 192 0 min 0 W/m 8,0 C 8,4 C 4,8 km/h (1 Bft)
14.11.2018 12:50 8,1 C 7,8 C 96 % 1037,3 hPa 0,0 l/m 3,6 km/h (1 Bft) S 190 0 min 0 W/m 7,5 C 8,1 C 6,4 km/h (2 Bft)
14.11.2018 12:45 7,8 C 7,5 C 96 % 1037,4 hPa 0,0 l/m 2,8 km/h (1 Bft) S 189 0 min 0 W/m 7,2 C 7,8 C 4,8 km/h (1 Bft)
14.11.2018 12:40 7,5 C 7,2 C 96 % 1037,5 hPa 0,0 l/m 2,7 km/h (1 Bft) S 186 0 min 0 W/m 6,9 C 7,5 C 4,8 km/h (1 Bft)
14.11.2018 12:35 7,2 C 6,8 C 96 % 1037,5 hPa 0,0 l/m 1,7 km/h (1 Bft) S 184 0 min 0 W/m 6,6 C 7,2 C 3,2 km/h (1 Bft)
14.11.2018 12:30 6,8 C 6,5 C 96 % 1037,6 hPa 0,0 l/m 1,2 km/h (1 Bft) S 184 0 min 0 W/m 6,2 C 6,8 C 3,2 km/h (1 Bft)
14.11.2018 12:25 6,5 C 6,3 C 96 % 1037,6 hPa 0,0 l/m 1,9 km/h (1 Bft) S 184 0 min 0 W/m 5,9 C 6,5 C 3,2 km/h (1 Bft)
14.11.2018 12:20 6,3 C 6,2 C 96 % 1037,6 hPa 0,0 l/m 1,6 km/h (1 Bft) S 184 0 min 0 W/m 5,7 C 6,3 C 3,2 km/h (1 Bft)
14.11.2018 12:15 6,2 C 6,1 C 96 % 1037,8 hPa 0,0 l/m 0,9 km/h (0 Bft) S 184 0 min 0 W/m 5,6 C 6,2 C 3,2 km/h (1 Bft)
14.11.2018 12:10 6,1 C 5,9 C 96 % 1037,7 hPa 0,0 l/m 0,9 km/h (0 Bft) S 184 0 min 0 W/m 5,5 C 6,1 C 3,2 km/h (1 Bft)
14.11.2018 12:05 5,9 C 5,9 C 97 % 1037,9 hPa 0,0 l/m 1,2 km/h (1 Bft) S 184 0 min 0 W/m 5,5 C 5,9 C 3,2 km/h (1 Bft)
14.11.2018 12:00 6,0 C 5,8 C 97 % 1038,0 hPa 0,0 l/m 1,5 km/h (1 Bft) S 190 0 min 0 W/m 5,6 C 6,0 C 3,2 km/h (1 Bft)
14.11.2018 11:55 5,8 C 5,6 C 96 % 1038,0 hPa 0,0 l/m 1,6 km/h (1 Bft) S 190 0 min 0 W/m 5,2 C 5,8 C 3,2 km/h (1 Bft)
14.11.2018 11:50 5,6 C 5,4 C 97 % 1038,1 hPa 0,0 l/m 2,0 km/h (1 Bft) S 173 0 min 0 W/m 5,2 C 5,6 C 4,8 km/h (1 Bft)
14.11.2018 11:45 5,4 C 5,3 C 97 % 1038,1 hPa 0,0 l/m 2,1 km/h (1 Bft) S 180 0 min 0 W/m 5,0 C 5,4 C 4,8 km/h (1 Bft)
14.11.2018 11:40 5,3 C 5,2 C 97 % 1038,2 hPa 0,0 l/m 1,1 km/h (1 Bft) S 190 0 min 0 W/m 4,9 C 5,3 C 3,2 km/h (1 Bft)
14.11.2018 11:35 5,2 C 5,0 C 96 % 1038,2 hPa 0,0 l/m 2,1 km/h (1 Bft) S 190 0 min 0 W/m 4,6 C 5,2 C 4,8 km/h (1 Bft)
14.11.2018 11:30 5,0 C 4,8 C 97 % 1038,2 hPa 0,0 l/m 2,8 km/h (1 Bft) S-SO 154 0 min 0 W/m 4,6 C 5,0 C 6,4 km/h (2 Bft)
14.11.2018 11:25 4,8 C 4,7 C 96 % 1038,3 hPa 0,0 l/m 3,3 km/h (1 Bft) S-SO 160 0 min 0 W/m 4,2 C 4,8 C 6,4 km/h (2 Bft)
14.11.2018 11:20 4,7 C 4,5 C 97 % 1038,5 hPa 0,0 l/m 2,7 km/h (1 Bft) S 180 0 min 0 W/m 4,3 C 4,7 C 4,8 km/h (1 Bft)
14.11.2018 11:15 4,5 C 4,2 C 96 % 1038,5 hPa 0,0 l/m 2,1 km/h (1 Bft) S 191 0 min 0 W/m 3,9 C 4,5 C 3,2 km/h (1 Bft)
14.11.2018 11:10 4,2 C 4,0 C 96 % 1038,5 hPa 0,0 l/m 1,1 km/h (1 Bft) S-SW 195 0 min 0 W/m 3,6 C 4,2 C 3,2 km/h (1 Bft)
14.11.2018 11:05 4,1 C 3,9 C 96 % 1038,5 hPa 0,0 l/m 0,5 km/h (0 Bft) S 177 0 min 0 W/m 3,5 C 4,1 C 3,2 km/h (1 Bft)
14.11.2018 11:00 3,9 C 3,6 C 96 % 1038,6 hPa 0,0 l/m 0,6 km/h (0 Bft) S 176 0 min 0 W/m 3,3 C 3,9 C 1,6 km/h (1 Bft)
14.11.2018 10:55 3,6 C 3,6 C 96 % 1038,6 hPa 0,0 l/m 1,6 km/h (1 Bft) S 176 0 min 0 W/m 3,0 C 3,6 C 4,8 km/h (1 Bft)
14.11.2018 10:50 3,6 C 3,4 C 96 % 1038,7 hPa 0,0 l/m 1,5 km/h (1 Bft) S 179 0 min 0 W/m 3,0 C 3,6 C 4,8 km/h (1 Bft)
14.11.2018 10:45 3,4 C 3,3 C 96 % 1038,7 hPa 0,0 l/m 0,3 km/h (0 Bft) S 181 0 min 0 W/m 2,8 C 3,4 C 1,6 km/h (1 Bft)
14.11.2018 10:40 3,3 C 3,2 C 96 % 1038,7 hPa 0,0 l/m 0,2 km/h (0 Bft) S 181 0 min 0 W/m 2,7 C 3,3 C 1,6 km/h (1 Bft)
14.11.2018 10:35 3,2 C 3,2 C 96 % 1038,6 hPa 0,0 l/m 1,1 km/h (1 Bft) S-SO 161 0 min 0 W/m 2,6 C 3,2 C 3,2 km/h (1 Bft)
14.11.2018 10:30 3,2 C 3,0 C 96 % 1038,7 hPa 0,0 l/m 1,7 km/h (1 Bft) S-SO 161 0 min 0 W/m 2,6 C 3,2 C 4,8 km/h (1 Bft)
14.11.2018 10:25 3,0 C 2,9 C 96 % 1038,7 hPa 0,0 l/m 2,1 km/h (1 Bft) S-SO 154 0 min 0 W/m 2,4 C 3,0 C 6,4 km/h (2 Bft)
14.11.2018 10:20 2,9 C 2,8 C 96 % 1038,8 hPa 0,0 l/m 0,6 km/h (0 Bft) S 176 0 min 0 W/m 2,3 C 2,9 C 3,2 km/h (1 Bft)
14.11.2018 10:15 2,8 C 2,7 C 96 % 1038,9 hPa 0,0 l/m 0,8 km/h (0 Bft) S 175 0 min 0 W/m 2,2 C 2,8 C 3,2 km/h (1 Bft)
14.11.2018 10:10 2,7 C 2,7 C 96 % 1038,8 hPa 0,0 l/m 1,7 km/h (1 Bft) S 181 0 min 0 W/m 2,1 C 2,7 C 3,2 km/h (1 Bft)
14.11.2018 10:05 2,7 C 2,6 C 96 % 1038,8 hPa 0,0 l/m 2,2 km/h (1 Bft) S-SW 200 0 min 0 W/m 2,1 C 2,7 C 4,8 km/h (1 Bft)
14.11.2018 10:00 2,6 C 2,5 C 96 % 1038,8 hPa 0,0 l/m 3,2 km/h (1 Bft) S-SW 202 0 min 0 W/m 2,0 C 2,6 C 4,8 km/h (1 Bft)
14.11.2018 09:55 2,6 C 2,4 C 96 % 1038,9 hPa 0,0 l/m 2,3 km/h (1 Bft) S 179 0 min 0 W/m 2,0 C 2,6 C 3,2 km/h (1 Bft)
14.11.2018 09:50 2,4 C 2,3 C 96 % 1039,0 hPa 0,0 l/m 0,5 km/h (0 Bft) S 179 0 min 0 W/m 1,8 C 2,4 C 3,2 km/h (1 Bft)
14.11.2018 09:45 2,3 C 2,3 C 96 % 1039,0 hPa 0,0 l/m 0,8 km/h (0 Bft) S 179 0 min 0 W/m 1,7 C 2,3 C 3,2 km/h (1 Bft)
14.11.2018 09:40 2,3 C 2,3 C 96 % 1039,0 hPa 0,0 l/m 0,7 km/h (0 Bft) S 179 0 min 0 W/m 1,7 C 2,3 C 3,2 km/h (1 Bft)
14.11.2018 09:35 2,3 C 2,3 C 96 % 1039,0 hPa 0,0 l/m 1,2 km/h (1 Bft) S 179 0 min 0 W/m 1,7 C 2,3 C 3,2 km/h (1 Bft)
14.11.2018 09:30 2,3 C 2,2 C 96 % 1039,0 hPa 0,0 l/m 2,1 km/h (1 Bft) S 179 0 min 0 W/m 1,7 C 2,3 C 4,8 km/h (1 Bft)
14.11.2018 09:25 2,2 C 2,2 C 96 % 1039,1 hPa 0,0 l/m 2,3 km/h (1 Bft) S 187 0 min 0 W/m 1,6 C 2,2 C 4,8 km/h (1 Bft)
14.11.2018 09:20 2,2 C 2,2 C 96 % 1039,1 hPa 0,0 l/m 2,1 km/h (1 Bft) S-SW 196 0 min 0 W/m 1,6 C 2,2 C 4,8 km/h (1 Bft)
14.11.2018 09:15 2,2 C 2,1 C 96 % 1039,1 hPa 0,0 l/m 1,1 km/h (1 Bft) W 280 0 min 0 W/m 1,6 C 2,2 C 3,2 km/h (1 Bft)
14.11.2018 09:10 2,1 C 2,0 C 96 % 1039,1 hPa 0,0 l/m 0,0 km/h (0 Bft) W-NW 287 0 min 0 W/m 1,5 C 2,1 C 1,6 km/h (1 Bft)
14.11.2018 09:05 2,0 C 1,9 C 96 % 1039,0 hPa 0,0 l/m 0,2 km/h (0 Bft) W-NW 287 0 min 0 W/m 1,4 C 2,0 C 1,6 km/h (1 Bft)
14.11.2018 09:00 1,9 C 1,9 C 96 % 1039,0 hPa 0,0 l/m 0,2 km/h (0 Bft) W-NW 287 0 min 0 W/m 1,3 C 1,9 C 1,6 km/h (1 Bft)
14.11.2018 08:55 1,9 C 1,8 C 96 % 1039,0 hPa 0,0 l/m 1,7 km/h (1 Bft) W-NW 287 0 min 0 W/m 1,3 C 1,9 C 3,2 km/h (1 Bft)
14.11.2018 08:50 1,8 C 1,7 C 96 % 1039,1 hPa 0,0 l/m 0,1 km/h (0 Bft) S 186 0 min 0 W/m 1,2 C 1,8 C 1,6 km/h (1 Bft)
14.11.2018 08:45 1,7 C 1,7 C 95 % 1039,0 hPa 0,0 l/m 0,7 km/h (0 Bft) S 187 0 min 0 W/m 1,0 C 1,7 C 3,2 km/h (1 Bft)
14.11.2018 08:40 1,7 C 1,7 C 95 % 1039,1 hPa 0,0 l/m 0,7 km/h (0 Bft) S 187 0 min 0 W/m 1,0 C 1,7 C 3,2 km/h (1 Bft)
14.11.2018 08:35 1,8 C 1,7 C 96 % 1039,0 hPa 0,0 l/m 0,5 km/h (0 Bft) S 190 0 min 0 W/m 1,2 C 1,8 C 3,2 km/h (1 Bft)
14.11.2018 08:30 1,7 C 1,7 C 95 % 1039,1 hPa 0,0 l/m 1,4 km/h (1 Bft) S-SW 209 0 min 0 W/m 1,0 C 1,7 C 3,2 km/h (1 Bft)
14.11.2018 08:25 1,7 C 1,6 C 95 % 1039,0 hPa 0,0 l/m 1,7 km/h (1 Bft) S 169 0 min 0 W/m 1,0 C 1,7 C 6,4 km/h (2 Bft)
14.11.2018 08:20 1,7 C 1,6 C 95 % 1039,0 hPa 0,0 l/m 2,1 km/h (1 Bft) S-SO 168 0 min 0 W/m 1,0 C 1,7 C 6,4 km/h (2 Bft)
14.11.2018 08:15 1,7 C 1,7 C 95 % 1039,1 hPa 0,0 l/m 1,7 km/h (1 Bft) S-SO 168 0 min 0 W/m 1,0 C 1,7 C 4,8 km/h (1 Bft)
14.11.2018 08:10 1,8 C 1,8 C 95 % 1039,0 hPa 0,0 l/m 1,7 km/h (1 Bft) S 177 0 min 0 W/m 1,1 C 1,8 C 4,8 km/h (1 Bft)
14.11.2018 08:05 1,8 C 1,8 C 95 % 1039,0 hPa 0,0 l/m 0,9 km/h (0 Bft) S 189 0 min 0 W/m 1,1 C 1,8 C 3,2 km/h (1 Bft)
14.11.2018 08:00 1,8 C 1,8 C 95 % 1039,1 hPa 0,0 l/m 1,8 km/h (1 Bft) S 188 0 min 0 W/m 1,1 C 1,8 C 4,8 km/h (1 Bft)
14.11.2018 07:55 1,8 C 1,8 C 95 % 1039,1 hPa 0,0 l/m 0,7 km/h (0 Bft) S-SW 194 0 min 0 W/m 1,1 C 1,8 C 3,2 km/h (1 Bft)
14.11.2018 07:50 1,8 C 1,7 C 95 % 1039,0 hPa 0,0 l/m 1,5 km/h (1 Bft) S-SW 194 0 min 0 W/m 1,1 C 1,8 C 3,2 km/h (1 Bft)
14.11.2018 07:45 1,7 C 1,7 C 95 % 1039,2 hPa 0,0 l/m 1,8 km/h (1 Bft) S-SW 209 0 min 0 W/m 1,0 C 1,7 C 4,8 km/h (1 Bft)
14.11.2018 07:40 1,8 C 1,8 C 95 % 1039,0 hPa 0,0 l/m 3,0 km/h (1 Bft) S 183 0 min 0 W/m 1,1 C 1,8 C 4,8 km/h (1 Bft)
14.11.2018 07:35 1,8 C 1,8 C 95 % 1039,1 hPa 0,0 l/m 2,1 km/h (1 Bft) S-SO 163 0 min 0 W/m 1,1 C 1,8 C 6,4 km/h (2 Bft)
14.11.2018 07:30 1,9 C 1,9 C 95 % 1039,2 hPa 0,0 l/m 2,0 km/h (1 Bft) S 172 0 min 0 W/m 1,2 C 1,9 C 4,8 km/h (1 Bft)
14.11.2018 07:25 1,9 C 1,9 C 95 % 1039,1 hPa 0,0 l/m 1,0 km/h (0 Bft) S 172 0 min 0 W/m 1,2 C 1,9 C 4,8 km/h (1 Bft)
14.11.2018 07:20 2,0 C 2,0 C 95 % 1039,2 hPa 0,0 l/m 1,8 km/h (1 Bft) S 180 0 min 0 W/m 1,3 C 2,0 C 4,8 km/h (1 Bft)
14.11.2018 07:15 2,1 C 2,1 C 95 % 1039,2 hPa 0,0 l/m 2,9 km/h (1 Bft) S-SW 201 0 min 0 W/m 1,4 C 2,1 C 4,8 km/h (1 Bft)
14.11.2018 07:10 2,2 C 2,2 C 95 % 1039,2 hPa 0,0 l/m 3,3 km/h (1 Bft) SW 221 0 min 0 W/m 1,5 C 2,2 C 8,0 km/h (2 Bft)
14.11.2018 07:05 2,3 C 2,3 C 95 % 1039,2 hPa 0,0 l/m 1,7 km/h (1 Bft) S-SO 156 0 min 0 W/m 1,6 C 2,3 C 4,8 km/h (1 Bft)
14.11.2018 07:00 2,4 C 2,4 C 95 % 1039,2 hPa 0,0 l/m 0,6 km/h (0 Bft) N-NO 19 0 min 0 W/m 1,7 C 2,4 C 3,2 km/h (1 Bft)
14.11.2018 06:55 2,4 C 2,4 C 95 % 1039,2 hPa 0,0 l/m 0,2 km/h (0 Bft) N 360 0 min 0 W/m 1,7 C 2,4 C 3,2 km/h (1 Bft)
14.11.2018 06:50 2,5 C 2,4 C 95 % 1039,3 hPa 0,0 l/m 0,0 km/h (0 Bft) N 360 0 min 0 W/m 1,8 C 2,5 C 0,0 km/h (0 Bft)
14.11.2018 06:45 2,6 C 2,5 C 95 % 1039,3 hPa 0,0 l/m 0,0 km/h (0 Bft) N 355 0 min 0 W/m 1,9 C 2,6 C 0,0 km/h (0 Bft)
14.11.2018 06:40 2,6 C 2,6 C 95 % 1039,3 hPa 0,3 l/m 0,1 km/h (0 Bft) N 355 0 min 0 W/m 1,9 C 2,6 C 1,6 km/h (1 Bft)
14.11.2018 06:35 2,6 C 2,5 C 95 % 1039,3 hPa 0,0 l/m 0,4 km/h (0 Bft) N 355 0 min 0 W/m 1,9 C 2,6 C 3,2 km/h (1 Bft)
14.11.2018 06:30 2,5 C 2,5 C 95 % 1039,3 hPa 0,0 l/m 0,1 km/h (0 Bft) N-NO 13 0 min 0 W/m 1,8 C 2,5 C 1,6 km/h (1 Bft)
14.11.2018 06:25 2,5 C 2,5 C 95 % 1039,3 hPa 0,0 l/m 0,8 km/h (0 Bft) N-NO 13 0 min 0 W/m 1,8 C 2,5 C 3,2 km/h (1 Bft)
14.11.2018 06:20 2,6 C 2,6 C 95 % 1039,4 hPa 0,0 l/m 0,8 km/h (0 Bft) N-NO 13 0 min 0 W/m 1,9 C 2,6 C 3,2 km/h (1 Bft)
14.11.2018 06:15 2,6 C 2,6 C 95 % 1039,4 hPa 0,0 l/m 0,5 km/h (0 Bft) N-NO 13 0 min 0 W/m 1,9 C 2,6 C 3,2 km/h (1 Bft)
14.11.2018 06:10 2,6 C 2,6 C 95 % 1039,5 hPa 0,0 l/m 0,5 km/h (0 Bft) N 5 0 min 0 W/m 1,9 C 2,6 C 1,6 km/h (1 Bft)
14.11.2018 06:05 2,6 C 2,6 C 95 % 1039,4 hPa 0,0 l/m 1,1 km/h (1 Bft) N-NO 22 0 min 0 W/m 1,9 C 2,6 C 3,2 km/h (1 Bft)
14.11.2018 06:00 2,6 C 2,6 C 95 % 1039,3 hPa 0,0 l/m 0,1 km/h (0 Bft) S 189 0 min 0 W/m 1,9 C 2,6 C 1,6 km/h (1 Bft)
14.11.2018 05:55 2,6 C 2,5 C 95 % 1039,3 hPa 0,0 l/m 0,0 km/h (0 Bft) S 189 0 min 0 W/m 1,9 C 2,6 C 0,0 km/h (0 Bft)
14.11.2018 05:50 2,5 C 2,4 C 95 % 1039,3 hPa 0,0 l/m 0,0 km/h (0 Bft) S 189 0 min 0 W/m 1,8 C 2,5 C 0,0 km/h (0 Bft)
14.11.2018 05:45 2,4 C 2,4 C 95 % 1039,3 hPa 0,0 l/m 0,0 km/h (0 Bft) S 189 0 min 0 W/m 1,7 C 2,4 C 0,0 km/h (0 Bft)
14.11.2018 05:40 2,4 C 2,3 C 95 % 1039,3 hPa 0,0 l/m 0,0 km/h (0 Bft) S 189 0 min 0 W/m 1,7 C 2,4 C 0,0 km/h (0 Bft)
14.11.2018 05:35 2,3 C 2,3 C 95 % 1039,3 hPa 0,0 l/m 0,3 km/h (0 Bft) S 189 0 min 0 W/m 1,6 C 2,3 C 1,6 km/h (1 Bft)
14.11.2018 05:30 2,3 C 2,3 C 95 % 1039,2 hPa 0,0 l/m 0,1 km/h (0 Bft) S 189 0 min 0 W/m 1,6 C 2,3 C 1,6 km/h (1 Bft)
14.11.2018 05:25 2,3 C 2,3 C 95 % 1039,2 hPa 0,0 l/m 0,2 km/h (0 Bft) S 189 0 min 0 W/m 1,6 C 2,3 C 1,6 km/h (1 Bft)
14.11.2018 05:20 2,3 C 2,3 C 95 % 1039,2 hPa 0,0 l/m 0,3 km/h (0 Bft) S 189 0 min 0 W/m 1,6 C 2,3 C 3,2 km/h (1 Bft)
14.11.2018 05:15 2,3 C 2,2 C 95 % 1039,2 hPa 0,0 l/m 1,0 km/h (0 Bft) S 189 0 min 0 W/m 1,6 C 2,3 C 4,8 km/h (1 Bft)
14.11.2018 05:10 2,2 C 2,1 C 95 % 1039,2 hPa 0,0 l/m 1,9 km/h (1 Bft) S 182 0 min 0 W/m 1,5 C 2,2 C 4,8 km/h (1 Bft)
14.11.2018 05:05 2,1 C 2,1 C 95 % 1039,2 hPa 0,0 l/m 2,9 km/h (1 Bft) S-SW 198 0 min 0 W/m 1,4 C 2,1 C 6,4 km/h (2 Bft)
14.11.2018 05:00 2,1 C 2,0 C 95 % 1039,2 hPa 0,0 l/m 1,2 km/h (1 Bft) S-SW 192 0 min 0 W/m 1,4 C 2,1 C 3,2 km/h (1 Bft)
14.11.2018 04:55 2,0 C 1,9 C 95 % 1039,2 hPa 0,0 l/m 1,2 km/h (1 Bft) S-SW 192 0 min 0 W/m 1,3 C 2,0 C 1,6 km/h (1 Bft)
14.11.2018 04:50 1,9 C 1,8 C 95 % 1039,2 hPa 0,0 l/m 1,2 km/h (1 Bft) S-SW 192 0 min 0 W/m 1,2 C 1,9 C 3,2 km/h (1 Bft)
14.11.2018 04:45 1,8 C 1,7 C 94 % 1039,2 hPa 0,0 l/m 1,6 km/h (1 Bft) S-SW 192 0 min 0 W/m 0,9 C 1,8 C 3,2 km/h (1 Bft)
14.11.2018 04:40 1,7 C 1,6 C 94 % 1039,3 hPa 0,0 l/m 3,6 km/h (1 Bft) S-SW 192 0 min 0 W/m 0,8 C 1,7 C 6,4 km/h (2 Bft)
14.11.2018 04:35 1,6 C 1,6 C 94 % 1039,3 hPa 0,0 l/m 2,6 km/h (1 Bft) S 188 0 min 0 W/m 0,7 C 1,6 C 6,4 km/h (2 Bft)
14.11.2018 04:30 1,7 C 1,7 C 94 % 1039,4 hPa 0,0 l/m 1,6 km/h (1 Bft) S 190 0 min 0 W/m 0,8 C 1,7 C 3,2 km/h (1 Bft)
14.11.2018 04:25 1,7 C 1,7 C 94 % 1039,3 hPa 0,0 l/m 1,1 km/h (1 Bft) S 190 0 min 0 W/m 0,8 C 1,7 C 3,2 km/h (1 Bft)
14.11.2018 04:20 1,7 C 1,7 C 94 % 1039,3 hPa 0,0 l/m 0,2 km/h (0 Bft) S 190 0 min 0 W/m 0,8 C 1,7 C 1,6 km/h (1 Bft)
14.11.2018 04:15 1,8 C 1,8 C 94 % 1039,4 hPa 0,0 l/m 0,0 km/h (0 Bft) S 190 0 min 0 W/m 0,9 C 1,8 C 1,6 km/h (1 Bft)
14.11.2018 04:10 1,8 C 1,8 C 94 % 1039,4 hPa 0,0 l/m 0,4 km/h (0 Bft) S 190 0 min 0 W/m 0,9 C 1,8 C 1,6 km/h (1 Bft)
14.11.2018 04:05 1,9 C 1,8 C 94 % 1039,4 hPa 0,0 l/m 0,0 km/h (0 Bft) S 190 0 min 0 W/m 1,0 C 1,9 C 1,6 km/h (1 Bft)
14.11.2018 04:00 1,9 C 1,9 C 94 % 1039,5 hPa 0,0 l/m 0,0 km/h (0 Bft) S 190 0 min 0 W/m 1,0 C 1,9 C 0,0 km/h (0 Bft)
14.11.2018 03:55 1,9 C 1,9 C 94 % 1039,6 hPa 0,0 l/m 0,0 km/h (0 Bft) S 190 0 min 0 W/m 1,0 C 1,9 C 0,0 km/h (0 Bft)
14.11.2018 03:50 1,9 C 1,9 C 94 % 1039,6 hPa 0,0 l/m 0,0 km/h (0 Bft) S 190 0 min 0 W/m 1,0 C 1,9 C 0,0 km/h (0 Bft)
14.11.2018 03:45 2,0 C 2,0 C 94 % 1039,6 hPa 0,0 l/m 0,0 km/h (0 Bft) S 190 0 min 0 W/m 1,1 C 2,0 C 0,0 km/h (0 Bft)
14.11.2018 03:40 2,0 C 2,0 C 94 % 1039,6 hPa 0,0 l/m 0,0 km/h (0 Bft) S 190 0 min 0 W/m 1,1 C 2,0 C 0,0 km/h (0 Bft)
14.11.2018 03:35 2,0 C 2,0 C 94 % 1039,6 hPa 0,0 l/m 0,0 km/h (0 Bft) S 190 0 min 0 W/m 1,1 C 2,0 C 0,0 km/h (0 Bft)
14.11.2018 03:30 2,0 C 2,0 C 94 % 1039,7 hPa 0,0 l/m 0,0 km/h (0 Bft) S 190 0 min 0 W/m 1,1 C 2,0 C 0,0 km/h (0 Bft)
14.11.2018 03:25 2,0 C 2,0 C 94 % 1039,6 hPa 0,0 l/m 0,0 km/h (0 Bft) S 190 0 min 0 W/m 1,1 C 2,0 C 0,0 km/h (0 Bft)
14.11.2018 03:20 2,1 C 2,0 C 94 % 1039,6 hPa 0,0 l/m 0,0 km/h (0 Bft) S 190 0 min 0 W/m 1,2 C 2,1 C 0,0 km/h (0 Bft)
14.11.2018 03:15 2,1 C 2,1 C 94 % 1039,7 hPa 0,0 l/m 0,0 km/h (0 Bft) S 190 0 min 0 W/m 1,2 C 2,1 C 0,0 km/h (0 Bft)
14.11.2018 03:10 2,1 C 2,1 C 94 % 1039,7 hPa 0,0 l/m 0,0 km/h (0 Bft) S 190 0 min 0 W/m 1,2 C 2,1 C 0,0 km/h (0 Bft)
14.11.2018 03:05 2,1 C 2,1 C 94 % 1039,7 hPa 0,0 l/m 0,0 km/h (0 Bft) S 190 0 min 0 W/m 1,2 C 2,1 C 0,0 km/h (0 Bft)
14.11.2018 03:00 2,1 C 2,1 C 94 % 1039,7 hPa 0,0 l/m 0,1 km/h (0 Bft) S 190 0 min 0 W/m 1,2 C 2,1 C 1,6 km/h (1 Bft)
14.11.2018 02:55 2,1 C 2,1 C 94 % 1039,6 hPa 0,0 l/m 0,0 km/h (0 Bft) S 190 0 min 0 W/m 1,2 C 2,1 C 1,6 km/h (1 Bft)
14.11.2018 02:50 2,2 C 2,2 C 94 % 1039,7 hPa 0,0 l/m 0,0 km/h (0 Bft) S 190 0 min 0 W/m 1,3 C 2,2 C 0,0 km/h (0 Bft)
14.11.2018 02:45 2,2 C 2,2 C 94 % 1039,7 hPa 0,0 l/m 0,0 km/h (0 Bft) S 190 0 min 0 W/m 1,3 C 2,2 C 0,0 km/h (0 Bft)
14.11.2018 02:40 2,3 C 2,3 C 94 % 1039,6 hPa 0,0 l/m 0,0 km/h (0 Bft) S 190 0 min 0 W/m 1,4 C 2,3 C 0,0 km/h (0 Bft)
14.11.2018 02:35 2,3 C 2,3 C 94 % 1039,7 hPa 0,0 l/m 0,0 km/h (0 Bft) S 190 0 min 0 W/m 1,4 C 2,3 C 0,0 km/h (0 Bft)
14.11.2018 02:30 2,4 C 2,4 C 94 % 1039,6 hPa 0,0 l/m 0,0 km/h (0 Bft) S 190 0 min 0 W/m 1,5 C 2,4 C 0,0 km/h (0 Bft)
14.11.2018 02:25 2,4 C 2,4 C 94 % 1039,7 hPa 0,0 l/m 0,3 km/h (0 Bft) S 190 0 min 0 W/m 1,5 C 2,4 C 1,6 km/h (1 Bft)
14.11.2018 02:20 2,5 C 2,5 C 94 % 1039,7 hPa 0,0 l/m 2,3 km/h (1 Bft) S 190 0 min 0 W/m 1,6 C 2,5 C 4,8 km/h (1 Bft)
14.11.2018 02:15 2,6 C 2,6 C 94 % 1039,7 hPa 0,0 l/m 1,5 km/h (1 Bft) S 190 0 min 0 W/m 1,7 C 2,6 C 4,8 km/h (1 Bft)
14.11.2018 02:10 2,7 C 2,7 C 94 % 1039,6 hPa 0,0 l/m 1,6 km/h (1 Bft) S 191 0 min 0 W/m 1,8 C 2,7 C 4,8 km/h (1 Bft)
14.11.2018 02:05 2,7 C 2,7 C 94 % 1039,6 hPa 0,0 l/m 1,2 km/h (1 Bft) S 189 0 min 0 W/m 1,8 C 2,7 C 4,8 km/h (1 Bft)
14.11.2018 02:00 2,8 C 2,8 C 94 % 1039,6 hPa 0,0 l/m 0,7 km/h (0 Bft) N-NO 15 0 min 0 W/m 1,9 C 2,8 C 3,2 km/h (1 Bft)
14.11.2018 01:55 2,8 C 2,8 C 94 % 1039,5 hPa 0,0 l/m 0,0 km/h (0 Bft) N-NO 15 0 min 0 W/m 1,9 C 2,8 C 0,0 km/h (0 Bft)
14.11.2018 01:50 2,9 C 2,9 C 94 % 1039,6 hPa 0,0 l/m 0,0 km/h (0 Bft) N-NO 15 0 min 0 W/m 2,0 C 2,9 C 1,6 km/h (1 Bft)
14.11.2018 01:45 2,9 C 2,9 C 94 % 1039,6 hPa 0,0 l/m 0,2 km/h (0 Bft) N-NO 15 0 min 0 W/m 2,0 C 2,9 C 1,6 km/h (1 Bft)
14.11.2018 01:40 2,9 C 2,9 C 94 % 1039,6 hPa 0,0 l/m 0,9 km/h (0 Bft) N-NO 15 0 min 0 W/m 2,0 C 2,9 C 3,2 km/h (1 Bft)
14.11.2018 01:35 2,9 C 2,9 C 94 % 1039,7 hPa 0,0 l/m 0,5 km/h (0 Bft) N-NO 15 0 min 0 W/m 2,0 C 2,9 C 3,2 km/h (1 Bft)
14.11.2018 01:30 2,9 C 2,9 C 94 % 1039,7 hPa 0,0 l/m 0,0 km/h (0 Bft) N-NO 15 0 min 0 W/m 2,0 C 2,9 C 0,0 km/h (0 Bft)
14.11.2018 01:25 2,9 C 2,9 C 94 % 1039,7 hPa 0,0 l/m 0,0 km/h (0 Bft) N-NO 15 0 min 0 W/m 2,0 C 2,9 C 0,0 km/h (0 Bft)
14.11.2018 01:20 2,9 C 2,9 C 94 % 1039,7 hPa 0,0 l/m 0,0 km/h (0 Bft) N-NO 15 0 min 0 W/m 2,0 C 2,9 C 0,0 km/h (0 Bft)
14.11.2018 01:15 3,0 C 3,0 C 94 % 1039,8 hPa 0,0 l/m 0,0 km/h (0 Bft) N-NO 15 0 min 0 W/m 2,1 C 3,0 C 0,0 km/h (0 Bft)
14.11.2018 01:10 3,1 C 3,1 C 94 % 1039,7 hPa 0,0 l/m 0,0 km/h (0 Bft) N-NO 15 0 min 0 W/m 2,2 C 3,1 C 0,0 km/h (0 Bft)
14.11.2018 01:05 3,2 C 3,2 C 94 % 1039,6 hPa 0,0 l/m 0,0 km/h (0 Bft) N-NO 15 0 min 0 W/m 2,3 C 3,2 C 0,0 km/h (0 Bft)
14.11.2018 01:00 3,2 C 3,2 C 94 % 1039,7 hPa 0,0 l/m 0,0 km/h (0 Bft) N-NO 15 0 min 0 W/m 2,3 C 3,2 C 0,0 km/h (0 Bft)
14.11.2018 00:55 3,3 C 3,3 C 94 % 1039,6 hPa 0,0 l/m 0,0 km/h (0 Bft) N-NO 15 0 min 0 W/m 2,4 C 3,3 C 0,0 km/h (0 Bft)
14.11.2018 00:50 3,4 C 3,4 C 94 % 1039,6 hPa 0,0 l/m 0,0 km/h (0 Bft) N-NO 15 0 min 0 W/m 2,5 C 3,4 C 0,0 km/h (0 Bft)
14.11.2018 00:45 3,4 C 3,4 C 94 % 1039,6 hPa 0,0 l/m 0,0 km/h (0 Bft) N-NO 15 0 min 0 W/m 2,5 C 3,4 C 0,0 km/h (0 Bft)
14.11.2018 00:40 3,5 C 3,5 C 94 % 1039,6 hPa 0,0 l/m 0,0 km/h (0 Bft) N-NO 15 0 min 0 W/m 2,6 C 3,5 C 0,0 km/h (0 Bft)
14.11.2018 00:35 3,6 C 3,6 C 94 % 1039,6 hPa 0,0 l/m 0,0 km/h (0 Bft) N-NO 15 0 min 0 W/m 2,7 C 3,6 C 0,0 km/h (0 Bft)
14.11.2018 00:30 3,7 C 3,7 C 94 % 1039,6 hPa 0,0 l/m 0,0 km/h (0 Bft) N-NO 15 0 min 0 W/m 2,8 C 3,7 C 0,0 km/h (0 Bft)
14.11.2018 00:25 3,7 C 3,7 C 94 % 1039,6 hPa 0,0 l/m 0,0 km/h (0 Bft) N-NO 15 0 min 0 W/m 2,8 C 3,7 C 0,0 km/h (0 Bft)
14.11.2018 00:20 3,7 C 3,7 C 94 % 1039,8 hPa 0,0 l/m 0,0 km/h (0 Bft) N-NO 15 0 min 0 W/m 2,8 C 3,7 C 0,0 km/h (0 Bft)
14.11.2018 00:15 3,8 C 3,8 C 93 % 1039,8 hPa 0,0 l/m 0,0 km/h (0 Bft) N-NO 15 0 min 0 W/m 2,8 C 3,8 C 0,0 km/h (0 Bft)
14.11.2018 00:10 3,9 C 3,8 C 94 % 1039,8 hPa 0,0 l/m 0,0 km/h (0 Bft) N-NO 15 0 min 0 W/m 3,0 C 3,9 C 0,0 km/h (0 Bft)
14.11.2018 00:05 3,9 C 3,9 C 94 % 1039,8 hPa 0,0 l/m 0,0 km/h (0 Bft) N-NO 15 0 min 0 W/m 3,0 C 3,9 C 0,0 km/h (0 Bft)
14.11.2018 00:00 4,0 C 4,0 C 93 % 1039,8 hPa 0,0 l/m 0,0 km/h (0 Bft) N-NO 15 0 min 0 W/m 3,0 C 4,0 C 0,0 km/h (0 Bft)
_ Min-Zeit 04:35 04:35 15:10 16:40 - 00:00 - - - - 04:35 04:35 00:00
Minimum _ 1,6 C 1,6 C 86 % 1036,0 hPa - 0,0 km/h (0 Bft) - - - - 0,7 C 1,6 C 0,0 km/h (0 Bft)
_ Max-Zeit 14:55 15:00 11:20 00:00 06:40 18:50 - - 00:00 00:00 14:35 14:55 23:00
Maximum _ 11,4 C 11,4 C 97 % 1039,8 hPa 0,3 l/m 6,9 km/h
N-NO (2 Bft)
- - 0 min 0 W/m 9,7 C 11,4 C 16,1 km/h
O (3 Bft)
Durchschnitt _ 5,3 C 5,2 C 93 % 1037,9 hPa #0,3 l/m 1,8 km/h (1 Bft) S - #0 min. 0 W/m 4,2 C 5,2 C 4,2 km/h (1 Bft)